sensor_id;sensor_type;location;lat;lon;timestamp;P1;durP1;ratioP1;P2;durP2;ratioP2
10761;SDS011;5433;50.862;4.320;2024-01-30T00:00:18;6.22;;;5.32;;
10761;SDS011;5433;50.862;4.320;2024-01-30T00:02:44;6.30;;;5.32;;
10761;SDS011;5433;50.862;4.320;2024-01-30T00:05:10;6.18;;;5.43;;
10761;SDS011;5433;50.862;4.320;2024-01-30T00:07:37;6.22;;;5.20;;
10761;SDS011;5433;50.862;4.320;2024-01-30T00:10:03;7.93;;;5.15;;
10761;SDS011;5433;50.862;4.320;2024-01-30T00:12:31;6.90;;;5.13;;
10761;SDS011;5433;50.862;4.320;2024-01-30T00:14:57;6.25;;;5.00;;
10761;SDS011;5433;50.862;4.320;2024-01-30T00:17:23;5.68;;;4.70;;
10761;SDS011;5433;50.862;4.320;2024-01-30T00:19:50;6.75;;;4.85;;
10761;SDS011;5433;50.862;4.320;2024-01-30T00:22:16;6.05;;;5.00;;
10761;SDS011;5433;50.862;4.320;2024-01-30T00:24:42;6.30;;;4.88;;
10761;SDS011;5433;50.862;4.320;2024-01-30T00:27:08;5.05;;;4.55;;
10761;SDS011;5433;50.862;4.320;2024-01-30T00:29:34;6.55;;;4.80;;
10761;SDS011;5433;50.862;4.320;2024-01-30T00:32:00;5.38;;;4.57;;
10761;SDS011;5433;50.862;4.320;2024-01-30T00:34:26;5.38;;;4.85;;
10761;SDS011;5433;50.862;4.320;2024-01-30T00:36:52;7.13;;;4.78;;
10761;SDS011;5433;50.862;4.320;2024-01-30T00:39:18;6.13;;;4.70;;
10761;SDS011;5433;50.862;4.320;2024-01-30T00:41:45;6.53;;;4.70;;
10761;SDS011;5433;50.862;4.320;2024-01-30T00:44:11;6.45;;;4.70;;
10761;SDS011;5433;50.862;4.320;2024-01-30T00:46:37;6.05;;;4.78;;
10761;SDS011;5433;50.862;4.320;2024-01-30T00:49:03;7.43;;;4.80;;
10761;SDS011;5433;50.862;4.320;2024-01-30T00:51:28;6.20;;;4.70;;
10761;SDS011;5433;50.862;4.320;2024-01-30T00:53:55;7.10;;;4.90;;
10761;SDS011;5433;50.862;4.320;2024-01-30T00:56:21;6.20;;;4.90;;
10761;SDS011;5433;50.862;4.320;2024-01-30T00:58:47;5.72;;;4.45;;
10761;SDS011;5433;50.862;4.320;2024-01-30T01:01:13;6.68;;;4.60;;
10761;SDS011;5433;50.862;4.320;2024-01-30T01:03:39;6.05;;;4.75;;
10761;SDS011;5433;50.862;4.320;2024-01-30T01:06:08;6.45;;;4.60;;
10761;SDS011;5433;50.862;4.320;2024-01-30T01:08:34;5.80;;;4.75;;
10761;SDS011;5433;50.862;4.320;2024-01-30T01:11:01;5.10;;;4.47;;
10761;SDS011;5433;50.862;4.320;2024-01-30T01:13:28;5.88;;;4.60;;
10761;SDS011;5433;50.862;4.320;2024-01-30T01:15:54;7.88;;;5.00;;
10761;SDS011;5433;50.862;4.320;2024-01-30T01:18:20;5.63;;;4.30;;
10761;SDS011;5433;50.862;4.320;2024-01-30T01:20:46;6.65;;;4.53;;
10761;SDS011;5433;50.862;4.320;2024-01-30T01:23:12;5.93;;;4.50;;
10761;SDS011;5433;50.862;4.320;2024-01-30T01:25:38;5.70;;;4.30;;
10761;SDS011;5433;50.862;4.320;2024-01-30T01:28:04;5.78;;;4.30;;
10761;SDS011;5433;50.862;4.320;2024-01-30T01:30:30;5.05;;;4.18;;
10761;SDS011;5433;50.862;4.320;2024-01-30T01:32:56;5.82;;;4.38;;
10761;SDS011;5433;50.862;4.320;2024-01-30T01:35:27;6.18;;;4.53;;
10761;SDS011;5433;50.862;4.320;2024-01-30T01:37:53;5.20;;;4.45;;
10761;SDS011;5433;50.862;4.320;2024-01-30T01:40:25;6.28;;;4.28;;
10761;SDS011;5433;50.862;4.320;2024-01-30T01:42:51;6.68;;;4.50;;
10761;SDS011;5433;50.862;4.320;2024-01-30T01:45:18;5.82;;;4.40;;
10761;SDS011;5433;50.862;4.320;2024-01-30T01:47:44;6.13;;;4.47;;
10761;SDS011;5433;50.862;4.320;2024-01-30T01:50:12;6.03;;;4.50;;
10761;SDS011;5433;50.862;4.320;2024-01-30T01:52:38;6.18;;;4.35;;
10761;SDS011;5433;50.862;4.320;2024-01-30T01:55:06;5.93;;;4.70;;
10761;SDS011;5433;50.862;4.320;2024-01-30T01:57:33;4.78;;;4.07;;
10761;SDS011;5433;50.862;4.320;2024-01-30T01:59:59;5.85;;;4.20;;
10761;SDS011;5433;50.862;4.320;2024-01-30T02:02:26;6.03;;;4.45;;
10761;SDS011;5433;50.862;4.320;2024-01-30T02:04:56;5.07;;;4.30;;
10761;SDS011;5433;50.862;4.320;2024-01-30T02:07:23;5.60;;;4.30;;
10761;SDS011;5433;50.862;4.320;2024-01-30T02:09:49;5.50;;;4.47;;
10761;SDS011;5433;50.862;4.320;2024-01-30T02:12:15;5.97;;;4.47;;
10761;SDS011;5433;50.862;4.320;2024-01-30T02:14:44;6.85;;;4.38;;
10761;SDS011;5433;50.862;4.320;2024-01-30T02:17:11;5.75;;;4.35;;
10761;SDS011;5433;50.862;4.320;2024-01-30T02:19:37;5.85;;;4.40;;
10761;SDS011;5433;50.862;4.320;2024-01-30T02:22:03;6.55;;;4.70;;
10761;SDS011;5433;50.862;4.320;2024-01-30T02:24:30;6.20;;;4.63;;
10761;SDS011;5433;50.862;4.320;2024-01-30T02:26:55;5.20;;;4.43;;
10761;SDS011;5433;50.862;4.320;2024-01-30T02:29:21;5.57;;;4.32;;
10761;SDS011;5433;50.862;4.320;2024-01-30T02:31:47;6.63;;;4.72;;
10761;SDS011;5433;50.862;4.320;2024-01-30T02:34:13;5.40;;;4.38;;
10761;SDS011;5433;50.862;4.320;2024-01-30T02:36:43;5.72;;;4.78;;
10761;SDS011;5433;50.862;4.320;2024-01-30T02:39:09;7.13;;;4.80;;
10761;SDS011;5433;50.862;4.320;2024-01-30T02:41:35;7.68;;;4.80;;
10761;SDS011;5433;50.862;4.320;2024-01-30T02:44:01;7.68;;;4.63;;
10761;SDS011;5433;50.862;4.320;2024-01-30T02:46:28;6.68;;;4.50;;
10761;SDS011;5433;50.862;4.320;2024-01-30T02:48:54;6.93;;;4.80;;
10761;SDS011;5433;50.862;4.320;2024-01-30T02:51:19;7.53;;;4.38;;
10761;SDS011;5433;50.862;4.320;2024-01-30T02:53:45;6.95;;;4.75;;
10761;SDS011;5433;50.862;4.320;2024-01-30T02:56:11;8.00;;;4.88;;
10761;SDS011;5433;50.862;4.320;2024-01-30T02:58:39;6.57;;;4.35;;
10761;SDS011;5433;50.862;4.320;2024-01-30T03:01:05;6.18;;;4.35;;
10761;SDS011;5433;50.862;4.320;2024-01-30T03:03:31;7.03;;;4.50;;
10761;SDS011;5433;50.862;4.320;2024-01-30T03:05:57;5.32;;;4.45;;
10761;SDS011;5433;50.862;4.320;2024-01-30T03:08:23;6.47;;;4.45;;
10761;SDS011;5433;50.862;4.320;2024-01-30T03:10:49;7.40;;;4.88;;
10761;SDS011;5433;50.862;4.320;2024-01-30T03:13:15;5.95;;;4.72;;
10761;SDS011;5433;50.862;4.320;2024-01-30T03:15:41;6.28;;;4.85;;
10761;SDS011;5433;50.862;4.320;2024-01-30T03:18:07;7.20;;;4.60;;
10761;SDS011;5433;50.862;4.320;2024-01-30T03:20:33;7.03;;;5.05;;
10761;SDS011;5433;50.862;4.320;2024-01-30T03:23:00;8.75;;;4.82;;
10761;SDS011;5433;50.862;4.320;2024-01-30T03:25:26;6.43;;;4.68;;
10761;SDS011;5433;50.862;4.320;2024-01-30T03:27:52;7.13;;;4.60;;
10761;SDS011;5433;50.862;4.320;2024-01-30T03:30:18;7.53;;;4.82;;
10761;SDS011;5433;50.862;4.320;2024-01-30T03:32:44;5.43;;;4.53;;
10761;SDS011;5433;50.862;4.320;2024-01-30T03:35:10;5.85;;;4.53;;
10761;SDS011;5433;50.862;4.320;2024-01-30T03:37:36;6.38;;;4.25;;
10761;SDS011;5433;50.862;4.320;2024-01-30T03:40:02;5.05;;;4.18;;
10761;SDS011;5433;50.862;4.320;2024-01-30T03:42:28;7.15;;;4.68;;
10761;SDS011;5433;50.862;4.320;2024-01-30T03:44:55;7.05;;;4.78;;
10761;SDS011;5433;50.862;4.320;2024-01-30T03:47:21;6.90;;;4.68;;
10761;SDS011;5433;50.862;4.320;2024-01-30T03:49:47;6.60;;;4.88;;
10761;SDS011;5433;50.862;4.320;2024-01-30T03:52:13;6.80;;;4.82;;
10761;SDS011;5433;50.862;4.320;2024-01-30T03:54:39;8.57;;;4.72;;
10761;SDS011;5433;50.862;4.320;2024-01-30T03:57:05;9.50;;;4.90;;
10761;SDS011;5433;50.862;4.320;2024-01-30T03:59:31;7.95;;;4.68;;
10761;SDS011;5433;50.862;4.320;2024-01-30T04:01:57;7.15;;;4.93;;
10761;SDS011;5433;50.862;4.320;2024-01-30T04:04:23;6.40;;;4.72;;
10761;SDS011;5433;50.862;4.320;2024-01-30T04:06:49;8.80;;;5.07;;
10761;SDS011;5433;50.862;4.320;2024-01-30T04:09:15;8.18;;;4.85;;
10761;SDS011;5433;50.862;4.320;2024-01-30T04:11:41;6.47;;;4.68;;
10761;SDS011;5433;50.862;4.320;2024-01-30T04:14:08;7.47;;;5.43;;
10761;SDS011;5433;50.862;4.320;2024-01-30T04:16:34;6.88;;;4.78;;
10761;SDS011;5433;50.862;4.320;2024-01-30T04:19:01;8.30;;;5.28;;
10761;SDS011;5433;50.862;4.320;2024-01-30T04:21:27;8.15;;;4.85;;
10761;SDS011;5433;50.862;4.320;2024-01-30T04:23:53;7.63;;;5.18;;
10761;SDS011;5433;50.862;4.320;2024-01-30T04:26:19;6.03;;;4.97;;
10761;SDS011;5433;50.862;4.320;2024-01-30T04:28:45;7.85;;;4.97;;
10761;SDS011;5433;50.862;4.320;2024-01-30T04:31:11;7.53;;;5.40;;
10761;SDS011;5433;50.862;4.320;2024-01-30T04:33:37;6.88;;;5.00;;
10761;SDS011;5433;50.862;4.320;2024-01-30T04:36:03;9.77;;;5.35;;
10761;SDS011;5433;50.862;4.320;2024-01-30T04:38:29;7.07;;;5.05;;
10761;SDS011;5433;50.862;4.320;2024-01-30T04:40:55;5.80;;;4.88;;
10761;SDS011;5433;50.862;4.320;2024-01-30T04:43:21;6.78;;;4.78;;
10761;SDS011;5433;50.862;4.320;2024-01-30T04:45:48;7.15;;;4.93;;
10761;SDS011;5433;50.862;4.320;2024-01-30T04:48:14;6.07;;;4.80;;
10761;SDS011;5433;50.862;4.320;2024-01-30T04:50:40;6.47;;;4.68;;
10761;SDS011;5433;50.862;4.320;2024-01-30T04:53:06;6.30;;;5.10;;
10761;SDS011;5433;50.862;4.320;2024-01-30T04:55:32;8.25;;;4.80;;
10761;SDS011;5433;50.862;4.320;2024-01-30T04:57:58;5.88;;;4.78;;
10761;SDS011;5433;50.862;4.320;2024-01-30T05:00:24;6.43;;;5.22;;
10761;SDS011;5433;50.862;4.320;2024-01-30T05:02:50;8.18;;;5.07;;
10761;SDS011;5433;50.862;4.320;2024-01-30T05:05:16;7.07;;;4.90;;
10761;SDS011;5433;50.862;4.320;2024-01-30T05:07:42;6.88;;;4.95;;
10761;SDS011;5433;50.862;4.320;2024-01-30T05:10:19;6.57;;;4.60;;
10761;SDS011;5433;50.862;4.320;2024-01-30T05:12:45;6.88;;;4.95;;
10761;SDS011;5433;50.862;4.320;2024-01-30T05:15:11;8.65;;;5.10;;
10761;SDS011;5433;50.862;4.320;2024-01-30T05:17:37;6.55;;;5.05;;
10761;SDS011;5433;50.862;4.320;2024-01-30T05:20:03;6.03;;;4.78;;
10761;SDS011;5433;50.862;4.320;2024-01-30T05:22:29;7.47;;;4.85;;
10761;SDS011;5433;50.862;4.320;2024-01-30T05:24:55;6.93;;;4.97;;
10761;SDS011;5433;50.862;4.320;2024-01-30T05:27:21;6.63;;;4.75;;
10761;SDS011;5433;50.862;4.320;2024-01-30T05:29:47;6.18;;;4.93;;
10761;SDS011;5433;50.862;4.320;2024-01-30T05:32:14;7.28;;;4.90;;
10761;SDS011;5433;50.862;4.320;2024-01-30T05:34:40;6.38;;;5.03;;
10761;SDS011;5433;50.862;4.320;2024-01-30T05:37:06;7.25;;;4.95;;
10761;SDS011;5433;50.862;4.320;2024-01-30T05:39:32;6.50;;;4.85;;
10761;SDS011;5433;50.862;4.320;2024-01-30T05:41:58;5.65;;;4.95;;
10761;SDS011;5433;50.862;4.320;2024-01-30T05:44:25;7.50;;;4.70;;
10761;SDS011;5433;50.862;4.320;2024-01-30T05:46:51;6.88;;;5.07;;
10761;SDS011;5433;50.862;4.320;2024-01-30T05:49:16;7.00;;;4.85;;
10761;SDS011;5433;50.862;4.320;2024-01-30T05:51:42;7.85;;;5.53;;
10761;SDS011;5433;50.862;4.320;2024-01-30T05:54:08;6.15;;;4.80;;
10761;SDS011;5433;50.862;4.320;2024-01-30T05:56:34;5.75;;;5.05;;
10761;SDS011;5433;50.862;4.320;2024-01-30T05:59:00;8.50;;;5.47;;
10761;SDS011;5433;50.862;4.320;2024-01-30T06:01:26;7.10;;;5.88;;
10761;SDS011;5433;50.862;4.320;2024-01-30T06:03:54;8.77;;;5.22;;
10761;SDS011;5433;50.862;4.320;2024-01-30T06:06:20;6.43;;;5.13;;
10761;SDS011;5433;50.862;4.320;2024-01-30T06:08:46;7.32;;;5.82;;
10761;SDS011;5433;50.862;4.320;2024-01-30T06:11:12;6.38;;;5.22;;
10761;SDS011;5433;50.862;4.320;2024-01-30T06:13:38;7.60;;;5.20;;
10761;SDS011;5433;50.862;4.320;2024-01-30T06:16:04;6.90;;;5.38;;
10761;SDS011;5433;50.862;4.320;2024-01-30T06:18:31;6.72;;;5.40;;
10761;SDS011;5433;50.862;4.320;2024-01-30T06:20:57;7.75;;;5.30;;
10761;SDS011;5433;50.862;4.320;2024-01-30T06:23:23;7.22;;;5.10;;
10761;SDS011;5433;50.862;4.320;2024-01-30T06:25:48;8.77;;;5.63;;
10761;SDS011;5433;50.862;4.320;2024-01-30T06:28:14;6.95;;;5.05;;
10761;SDS011;5433;50.862;4.320;2024-01-30T06:30:40;7.60;;;5.63;;
10761;SDS011;5433;50.862;4.320;2024-01-30T06:33:06;6.03;;;5.10;;
10761;SDS011;5433;50.862;4.320;2024-01-30T06:35:32;6.85;;;5.50;;
10761;SDS011;5433;50.862;4.320;2024-01-30T06:38:01;6.53;;;4.93;;
10761;SDS011;5433;50.862;4.320;2024-01-30T06:43:22;6.70;;;5.70;;
10761;SDS011;5433;50.862;4.320;2024-01-30T06:45:48;7.22;;;5.10;;
10761;SDS011;5433;50.862;4.320;2024-01-30T06:48:19;8.45;;;5.47;;
10761;SDS011;5433;50.862;4.320;2024-01-30T06:50:45;7.70;;;5.43;;
10761;SDS011;5433;50.862;4.320;2024-01-30T06:53:11;6.53;;;5.70;;
10761;SDS011;5433;50.862;4.320;2024-01-30T06:55:37;6.57;;;5.18;;
10761;SDS011;5433;50.862;4.320;2024-01-30T06:58:03;6.55;;;5.25;;
10761;SDS011;5433;50.862;4.320;2024-01-30T07:00:29;9.82;;;6.05;;
10761;SDS011;5433;50.862;4.320;2024-01-30T07:02:55;6.78;;;5.32;;
10761;SDS011;5433;50.862;4.320;2024-01-30T07:05:21;10.05;;;5.90;;
10761;SDS011;5433;50.862;4.320;2024-01-30T07:07:47;8.23;;;5.32;;
10761;SDS011;5433;50.862;4.320;2024-01-30T07:10:13;8.80;;;5.43;;
10761;SDS011;5433;50.862;4.320;2024-01-30T07:12:39;7.25;;;5.30;;
10761;SDS011;5433;50.862;4.320;2024-01-30T07:15:05;8.73;;;5.45;;
10761;SDS011;5433;50.862;4.320;2024-01-30T07:17:36;9.27;;;5.70;;
10761;SDS011;5433;50.862;4.320;2024-01-30T07:20:02;8.57;;;5.88;;
10761;SDS011;5433;50.862;4.320;2024-01-30T07:22:29;12.15;;;6.30;;
10761;SDS011;5433;50.862;4.320;2024-01-30T07:24:55;7.18;;;5.25;;
10761;SDS011;5433;50.862;4.320;2024-01-30T07:27:21;9.00;;;5.60;;
10761;SDS011;5433;50.862;4.320;2024-01-30T07:29:47;8.45;;;5.47;;
10761;SDS011;5433;50.862;4.320;2024-01-30T07:32:13;7.93;;;5.45;;
10761;SDS011;5433;50.862;4.320;2024-01-30T07:34:39;8.07;;;5.80;;
10761;SDS011;5433;50.862;4.320;2024-01-30T07:37:05;8.85;;;5.65;;
10761;SDS011;5433;50.862;4.320;2024-01-30T07:39:33;11.23;;;5.78;;
10761;SDS011;5433;50.862;4.320;2024-01-30T07:41:59;13.55;;;5.88;;
10761;SDS011;5433;50.862;4.320;2024-01-30T07:44:25;10.27;;;5.53;;
10761;SDS011;5433;50.862;4.320;2024-01-30T07:46:51;9.20;;;5.78;;
10761;SDS011;5433;50.862;4.320;2024-01-30T07:49:17;10.38;;;5.70;;
10761;SDS011;5433;50.862;4.320;2024-01-30T07:51:43;10.45;;;6.32;;
10761;SDS011;5433;50.862;4.320;2024-01-30T07:54:13;9.93;;;6.20;;
10761;SDS011;5433;50.862;4.320;2024-01-30T07:56:39;8.82;;;6.18;;
10761;SDS011;5433;50.862;4.320;2024-01-30T07:59:05;12.10;;;6.65;;
10761;SDS011;5433;50.862;4.320;2024-01-30T08:01:31;12.48;;;6.55;;
10761;SDS011;5433;50.862;4.320;2024-01-30T08:03:57;11.20;;;6.63;;
10761;SDS011;5433;50.862;4.320;2024-01-30T08:06:23;8.68;;;5.97;;
10761;SDS011;5433;50.862;4.320;2024-01-30T08:08:49;7.65;;;5.82;;
10761;SDS011;5433;50.862;4.320;2024-01-30T08:11:18;10.15;;;6.07;;
10761;SDS011;5433;50.862;4.320;2024-01-30T08:13:45;11.32;;;6.55;;
10761;SDS011;5433;50.862;4.320;2024-01-30T08:16:11;9.73;;;5.93;;
10761;SDS011;5433;50.862;4.320;2024-01-30T08:18:37;10.68;;;6.65;;
10761;SDS011;5433;50.862;4.320;2024-01-30T08:21:04;12.75;;;6.47;;
10761;SDS011;5433;50.862;4.320;2024-01-30T08:23:30;10.75;;;5.95;;
10761;SDS011;5433;50.862;4.320;2024-01-30T08:25:56;11.93;;;6.35;;
10761;SDS011;5433;50.862;4.320;2024-01-30T08:28:22;9.93;;;6.55;;
10761;SDS011;5433;50.862;4.320;2024-01-30T08:30:48;12.25;;;6.93;;
10761;SDS011;5433;50.862;4.320;2024-01-30T08:33:14;9.52;;;6.65;;
10761;SDS011;5433;50.862;4.320;2024-01-30T08:35:40;13.18;;;6.50;;
10761;SDS011;5433;50.862;4.320;2024-01-30T08:38:06;16.00;;;7.10;;
10761;SDS011;5433;50.862;4.320;2024-01-30T08:40:32;13.45;;;7.13;;
10761;SDS011;5433;50.862;4.320;2024-01-30T08:42:58;12.07;;;6.78;;
10761;SDS011;5433;50.862;4.320;2024-01-30T08:45:24;12.70;;;6.80;;
10761;SDS011;5433;50.862;4.320;2024-01-30T08:47:50;12.43;;;6.63;;
10761;SDS011;5433;50.862;4.320;2024-01-30T08:50:16;10.68;;;6.35;;
10761;SDS011;5433;50.862;4.320;2024-01-30T08:52:42;13.68;;;6.65;;
10761;SDS011;5433;50.862;4.320;2024-01-30T08:55:08;10.52;;;6.70;;
10761;SDS011;5433;50.862;4.320;2024-01-30T08:57:34;11.13;;;6.68;;
10761;SDS011;5433;50.862;4.320;2024-01-30T09:00:00;10.40;;;7.03;;
10761;SDS011;5433;50.862;4.320;2024-01-30T09:02:30;9.32;;;6.40;;
10761;SDS011;5433;50.862;4.320;2024-01-30T09:04:56;8.98;;;6.40;;
10761;SDS011;5433;50.862;4.320;2024-01-30T09:07:22;10.88;;;6.63;;
10761;SDS011;5433;50.862;4.320;2024-01-30T09:09:48;9.68;;;5.93;;
10761;SDS011;5433;50.862;4.320;2024-01-30T09:12:14;10.55;;;6.85;;
10761;SDS011;5433;50.862;4.320;2024-01-30T09:14:40;9.57;;;5.93;;
10761;SDS011;5433;50.862;4.320;2024-01-30T09:17:06;8.82;;;6.00;;
10761;SDS011;5433;50.862;4.320;2024-01-30T09:19:33;10.10;;;6.10;;
10761;SDS011;5433;50.862;4.320;2024-01-30T09:21:59;9.15;;;6.07;;
10761;SDS011;5433;50.862;4.320;2024-01-30T09:24:25;11.25;;;6.63;;
10761;SDS011;5433;50.862;4.320;2024-01-30T09:26:51;11.90;;;6.88;;
10761;SDS011;5433;50.862;4.320;2024-01-30T09:29:17;9.32;;;6.80;;
10761;SDS011;5433;50.862;4.320;2024-01-30T09:31:44;9.95;;;6.43;;
10761;SDS011;5433;50.862;4.320;2024-01-30T09:34:10;10.93;;;6.82;;
10761;SDS011;5433;50.862;4.320;2024-01-30T09:36:36;10.98;;;6.82;;
10761;SDS011;5433;50.862;4.320;2024-01-30T09:39:02;11.57;;;7.22;;
10761;SDS011;5433;50.862;4.320;2024-01-30T09:41:29;10.88;;;7.38;;
10761;SDS011;5433;50.862;4.320;2024-01-30T09:43:58;12.40;;;7.43;;
10761;SDS011;5433;50.862;4.320;2024-01-30T09:46:26;15.35;;;7.20;;
10761;SDS011;5433;50.862;4.320;2024-01-30T09:48:52;10.15;;;7.25;;
10761;SDS011;5433;50.862;4.320;2024-01-30T09:51:19;12.88;;;7.20;;
10761;SDS011;5433;50.862;4.320;2024-01-30T09:53:46;10.70;;;7.45;;
10761;SDS011;5433;50.862;4.320;2024-01-30T09:56:13;12.57;;;7.95;;
10761;SDS011;5433;50.862;4.320;2024-01-30T09:58:39;11.75;;;7.88;;
10761;SDS011;5433;50.862;4.320;2024-01-30T10:01:07;11.07;;;7.22;;
10761;SDS011;5433;50.862;4.320;2024-01-30T10:03:33;11.48;;;7.47;;
10761;SDS011;5433;50.862;4.320;2024-01-30T10:05:59;14.15;;;7.70;;
10761;SDS011;5433;50.862;4.320;2024-01-30T10:08:26;12.07;;;7.68;;
10761;SDS011;5433;50.862;4.320;2024-01-30T10:10:52;11.57;;;7.47;;
10761;SDS011;5433;50.862;4.320;2024-01-30T10:13:18;13.55;;;8.40;;
10761;SDS011;5433;50.862;4.320;2024-01-30T10:15:44;14.30;;;8.07;;
10761;SDS011;5433;50.862;4.320;2024-01-30T10:18:10;11.32;;;8.23;;
10761;SDS011;5433;50.862;4.320;2024-01-30T10:20:37;14.13;;;9.07;;
10761;SDS011;5433;50.862;4.320;2024-01-30T10:23:09;13.18;;;8.88;;
10761;SDS011;5433;50.862;4.320;2024-01-30T10:25:35;14.20;;;9.20;;
10761;SDS011;5433;50.862;4.320;2024-01-30T10:28:01;16.83;;;9.27;;
10761;SDS011;5433;50.862;4.320;2024-01-30T10:30:27;13.70;;;9.20;;
10761;SDS011;5433;50.862;4.320;2024-01-30T10:32:56;15.98;;;8.95;;
10761;SDS011;5433;50.862;4.320;2024-01-30T10:35:22;13.43;;;9.20;;
10761;SDS011;5433;50.862;4.320;2024-01-30T10:37:48;13.10;;;8.38;;
10761;SDS011;5433;50.862;4.320;2024-01-30T10:40:14;13.52;;;7.90;;
10761;SDS011;5433;50.862;4.320;2024-01-30T10:42:44;12.93;;;7.80;;
10761;SDS011;5433;50.862;4.320;2024-01-30T10:45:11;10.50;;;7.05;;
10761;SDS011;5433;50.862;4.320;2024-01-30T10:47:37;15.25;;;7.85;;
10761;SDS011;5433;50.862;4.320;2024-01-30T10:50:05;14.43;;;7.53;;
10761;SDS011;5433;50.862;4.320;2024-01-30T10:52:32;11.60;;;7.13;;
10761;SDS011;5433;50.862;4.320;2024-01-30T10:54:58;14.18;;;6.88;;
10761;SDS011;5433;50.862;4.320;2024-01-30T10:57:25;10.93;;;5.88;;
10761;SDS011;5433;50.862;4.320;2024-01-30T10:59:58;9.55;;;5.05;;
10761;SDS011;5433;50.862;4.320;2024-01-30T11:02:24;7.78;;;4.32;;
10761;SDS011;5433;50.862;4.320;2024-01-30T11:04:55;8.80;;;3.80;;
10761;SDS011;5433;50.862;4.320;2024-01-30T11:07:28;7.18;;;2.17;;
10761;SDS011;5433;50.862;4.320;2024-01-30T11:12:23;4.10;;;1.60;;
10761;SDS011;5433;50.862;4.320;2024-01-30T11:14:50;3.42;;;1.58;;
10761;SDS011;5433;50.862;4.320;2024-01-30T11:17:16;4.45;;;1.50;;
10761;SDS011;5433;50.862;4.320;2024-01-30T11:19:42;4.28;;;1.52;;
10761;SDS011;5433;50.862;4.320;2024-01-30T11:22:08;3.22;;;1.15;;
10761;SDS011;5433;50.862;4.320;2024-01-30T11:24:40;2.72;;;1.05;;
10761;SDS011;5433;50.862;4.320;2024-01-30T11:27:10;3.25;;;1.20;;
10761;SDS011;5433;50.862;4.320;2024-01-30T11:29:36;3.88;;;1.00;;
10761;SDS011;5433;50.862;4.320;2024-01-30T11:32:02;3.38;;;1.00;;
10761;SDS011;5433;50.862;4.320;2024-01-30T11:34:28;3.08;;;1.15;;
10761;SDS011;5433;50.862;4.320;2024-01-30T11:37:12;3.30;;;1.00;;
10761;SDS011;5433;50.862;4.320;2024-01-30T11:39:39;2.38;;;0.90;;
10761;SDS011;5433;50.862;4.320;2024-01-30T11:42:07;1.95;;;0.82;;
10761;SDS011;5433;50.862;4.320;2024-01-30T11:44:33;1.42;;;0.90;;
10761;SDS011;5433;50.862;4.320;2024-01-30T11:46:59;2.05;;;1.05;;
10761;SDS011;5433;50.862;4.320;2024-01-30T11:49:26;2.92;;;1.10;;
10761;SDS011;5433;50.862;4.320;2024-01-30T11:51:52;2.35;;;1.00;;
10761;SDS011;5433;50.862;4.320;2024-01-30T11:54:18;2.10;;;0.85;;
10761;SDS011;5433;50.862;4.320;2024-01-30T11:56:44;3.20;;;1.08;;
10761;SDS011;5433;50.862;4.320;2024-01-30T11:59:10;3.30;;;0.93;;
10761;SDS011;5433;50.862;4.320;2024-01-30T12:01:36;1.65;;;0.70;;
10761;SDS011;5433;50.862;4.320;2024-01-30T12:04:02;1.77;;;0.70;;
10761;SDS011;5433;50.862;4.320;2024-01-30T12:06:33;1.73;;;0.80;;
10761;SDS011;5433;50.862;4.320;2024-01-30T12:09:00;3.78;;;1.08;;
10761;SDS011;5433;50.862;4.320;2024-01-30T12:11:26;2.72;;;0.80;;
10761;SDS011;5433;50.862;4.320;2024-01-30T12:13:55;3.92;;;1.10;;
10761;SDS011;5433;50.862;4.320;2024-01-30T12:16:21;3.38;;;0.88;;
10761;SDS011;5433;50.862;4.320;2024-01-30T12:18:47;4.53;;;0.90;;
10761;SDS011;5433;50.862;4.320;2024-01-30T12:21:17;3.70;;;1.10;;
10761;SDS011;5433;50.862;4.320;2024-01-30T12:23:43;3.88;;;0.90;;
10761;SDS011;5433;50.862;4.320;2024-01-30T12:26:09;3.35;;;0.95;;
10761;SDS011;5433;50.862;4.320;2024-01-30T12:28:35;1.80;;;0.88;;
10761;SDS011;5433;50.862;4.320;2024-01-30T12:31:01;1.88;;;0.90;;
10761;SDS011;5433;50.862;4.320;2024-01-30T12:33:28;2.38;;;0.98;;
10761;SDS011;5433;50.862;4.320;2024-01-30T12:35:54;3.67;;;1.00;;
10761;SDS011;5433;50.862;4.320;2024-01-30T12:38:20;3.35;;;0.90;;
10761;SDS011;5433;50.862;4.320;2024-01-30T12:40:46;3.03;;;1.10;;
10761;SDS011;5433;50.862;4.320;2024-01-30T12:43:15;5.78;;;1.77;;
10761;SDS011;5433;50.862;4.320;2024-01-30T12:45:41;3.63;;;0.85;;
10761;SDS011;5433;50.862;4.320;2024-01-30T12:48:08;3.03;;;1.00;;
10761;SDS011;5433;50.862;4.320;2024-01-30T12:50:34;5.55;;;1.20;;
10761;SDS011;5433;50.862;4.320;2024-01-30T12:53:00;3.80;;;0.95;;
10761;SDS011;5433;50.862;4.320;2024-01-30T12:55:26;5.38;;;1.00;;
10761;SDS011;5433;50.862;4.320;2024-01-30T12:57:53;2.95;;;0.93;;
10761;SDS011;5433;50.862;4.320;2024-01-30T13:00:20;6.60;;;1.10;;
10761;SDS011;5433;50.862;4.320;2024-01-30T13:02:47;7.35;;;1.20;;
10761;SDS011;5433;50.862;4.320;2024-01-30T13:05:13;2.97;;;1.33;;
10761;SDS011;5433;50.862;4.320;2024-01-30T13:07:39;2.47;;;0.90;;
10761;SDS011;5433;50.862;4.320;2024-01-30T13:10:05;3.75;;;1.00;;
10761;SDS011;5433;50.862;4.320;2024-01-30T13:12:31;4.30;;;1.00;;
10761;SDS011;5433;50.862;4.320;2024-01-30T13:14:58;2.95;;;1.10;;
10761;SDS011;5433;50.862;4.320;2024-01-30T13:17:26;4.95;;;0.88;;
10761;SDS011;5433;50.862;4.320;2024-01-30T13:19:52;2.88;;;1.10;;
10761;SDS011;5433;50.862;4.320;2024-01-30T13:22:19;6.22;;;1.52;;
10761;SDS011;5433;50.862;4.320;2024-01-30T13:24:46;5.00;;;1.52;;
10761;SDS011;5433;50.862;4.320;2024-01-30T13:27:12;4.60;;;1.15;;
10761;SDS011;5433;50.862;4.320;2024-01-30T13:29:38;5.15;;;1.30;;
10761;SDS011;5433;50.862;4.320;2024-01-30T13:32:04;4.00;;;1.10;;
10761;SDS011;5433;50.862;4.320;2024-01-30T13:34:30;3.70;;;1.25;;
10761;SDS011;5433;50.862;4.320;2024-01-30T13:36:57;4.78;;;1.30;;
10761;SDS011;5433;50.862;4.320;2024-01-30T13:39:23;2.70;;;0.93;;
10761;SDS011;5433;50.862;4.320;2024-01-30T13:41:49;2.97;;;1.10;;
10761;SDS011;5433;50.862;4.320;2024-01-30T13:44:15;2.83;;;1.10;;
10761;SDS011;5433;50.862;4.320;2024-01-30T13:46:45;3.35;;;1.00;;
10761;SDS011;5433;50.862;4.320;2024-01-30T13:49:11;1.98;;;1.02;;
10761;SDS011;5433;50.862;4.320;2024-01-30T13:51:37;4.65;;;1.00;;
10761;SDS011;5433;50.862;4.320;2024-01-30T13:54:03;2.08;;;1.10;;
10761;SDS011;5433;50.862;4.320;2024-01-30T13:56:29;3.53;;;1.20;;
10761;SDS011;5433;50.862;4.320;2024-01-30T13:58:56;3.70;;;1.30;;
10761;SDS011;5433;50.862;4.320;2024-01-30T14:01:22;4.00;;;1.10;;
10761;SDS011;5433;50.862;4.320;2024-01-30T14:03:49;2.50;;;1.10;;
10761;SDS011;5433;50.862;4.320;2024-01-30T14:06:15;2.00;;;1.15;;
10761;SDS011;5433;50.862;4.320;2024-01-30T14:08:41;3.63;;;1.10;;
10761;SDS011;5433;50.862;4.320;2024-01-30T14:11:07;4.60;;;1.13;;
10761;SDS011;5433;50.862;4.320;2024-01-30T14:13:33;2.13;;;1.13;;
10761;SDS011;5433;50.862;4.320;2024-01-30T14:15:59;3.45;;;1.00;;
10761;SDS011;5433;50.862;4.320;2024-01-30T14:18:25;5.38;;;1.08;;
10761;SDS011;5433;50.862;4.320;2024-01-30T14:20:51;4.22;;;1.02;;
10761;SDS011;5433;50.862;4.320;2024-01-30T14:23:17;2.35;;;0.80;;
10761;SDS011;5433;50.862;4.320;2024-01-30T14:25:44;2.92;;;1.13;;
10761;SDS011;5433;50.862;4.320;2024-01-30T14:28:10;9.77;;;1.70;;
10761;SDS011;5433;50.862;4.320;2024-01-30T14:30:36;2.28;;;0.90;;
10761;SDS011;5433;50.862;4.320;2024-01-30T14:33:02;2.97;;;1.00;;
10761;SDS011;5433;50.862;4.320;2024-01-30T14:35:28;2.85;;;1.20;;
10761;SDS011;5433;50.862;4.320;2024-01-30T14:37:54;2.75;;;1.00;;
10761;SDS011;5433;50.862;4.320;2024-01-30T14:40:20;4.45;;;1.27;;
10761;SDS011;5433;50.862;4.320;2024-01-30T14:42:46;4.50;;;1.30;;
10761;SDS011;5433;50.862;4.320;2024-01-30T14:45:12;3.05;;;0.90;;
10761;SDS011;5433;50.862;4.320;2024-01-30T14:47:38;5.97;;;1.65;;
10761;SDS011;5433;50.862;4.320;2024-01-30T14:50:05;1.95;;;0.82;;
10761;SDS011;5433;50.862;4.320;2024-01-30T14:52:32;3.30;;;1.17;;
10761;SDS011;5433;50.862;4.320;2024-01-30T14:54:58;3.13;;;0.90;;
10761;SDS011;5433;50.862;4.320;2024-01-30T14:57:25;4.13;;;1.00;;